Time;durP1;ratioP1;P1;durP2;ratioP2;P2;SDS_P1;SDS_P2;PMS_P1;PMS_P2;Temp;Humidity;BMP_temperature;BMP_pressure;BME280_temperature;BME280_humidity;BME280_pressure;Samples;Min_cycle;Max_cycle;Signal;HPM_P1;HPM_P2
2022/07/22 00:01:42;;;;;;;15.90;11.67;;;;;;;;;;5052853;28;20478;-77
2022/07/22 00:04:08;;;;;;;18.27;12.27;;;;;;;;;;5052245;28;20448;-80
2022/07/22 00:06:34;;;;;;;19.17;11.80;;;;;;;;;;5054472;28;20417;-76
2022/07/22 00:09:00;;;;;;;15.23;11.77;;;;;;;;;;5053263;28;20466;-76
2022/07/22 00:11:26;;;;;;;16.17;11.07;;;;;;;;;;5053126;28;20868;-76
2022/07/22 00:13:52;;;;;;;16.70;10.70;;;;;;;;;;5053046;28;20448;-76
2022/07/22 00:16:18;;;;;;;18.57;10.27;;;;;;;;;;5052375;28;20482;-78
2022/07/22 00:18:44;;;;;;;17.70;10.50;;;;;;;;;;5053190;28;20458;-79
2022/07/22 00:21:10;;;;;;;18.23;9.63;;;;;;;;;;5053083;28;20496;-75
2022/07/22 00:23:36;;;;;;;16.63;9.67;;;;;;;;;;5052686;28;20506;-77
2022/07/22 00:26:02;;;;;;;18.23;11.07;;;;;;;;;;5051827;28;20431;-74
2022/07/22 00:28:28;;;;;;;13.60;10.53;;;;;;;;;;5052913;28;20460;-78
2022/07/22 00:30:55;;;;;;;15.00;9.50;;;;;;;;;;5051676;28;20409;-79
2022/07/22 00:33:21;;;;;;;11.83;9.13;;;;;;;;;;5052734;28;20428;-78
2022/07/22 00:35:47;;;;;;;12.30;9.23;;;;;;;;;;5052723;28;20440;-75
2022/07/22 00:38:13;;;;;;;13.23;8.50;;;;;;;;;;5052860;28;20482;-75
2022/07/22 00:40:39;;;;;;;16.73;9.40;;;;;;;;;;5053013;28;20510;-78
2022/07/22 00:43:05;;;;;;;12.67;8.57;;;;;;;;;;5052526;28;20514;-78
2022/07/22 00:45:31;;;;;;;11.87;9.73;;;;;;;;;;5052851;28;20415;-76
2022/07/22 00:47:57;;;;;;;13.13;8.40;;;;;;;;;;5051420;28;20425;-75
2022/07/22 00:50:23;;;;;;;12.83;9.37;;;;;;;;;;5053146;28;20388;-77
2022/07/22 00:52:50;;;;;;;12.30;9.03;;;;;;;;;;5052468;28;20774;-77
2022/07/22 00:55:16;;;;;;;17.00;9.53;;;;;;;;;;5051626;28;20863;-75
2022/07/22 00:57:42;;;;;;;17.47;9.50;;;;;;;;;;5051629;28;20452;-77
2022/07/22 01:00:09;;;;;;;15.90;8.13;;;;;;;;;;5051443;28;20506;-77
2022/07/22 01:02:35;;;;;;;13.73;8.33;;;;;;;;;;5052452;28;20391;-78
2022/07/22 01:05:01;;;;;;;13.80;8.37;;;;;;;;;;5052783;28;20413;-75
2022/07/22 01:07:27;;;;;;;13.83;8.30;;;;;;;;;;5052615;28;20890;-75
2022/07/22 01:09:53;;;;;;;13.83;8.40;;;;;;;;;;5052524;28;20496;-75
2022/07/22 01:12:19;;;;;;;14.80;7.70;;;;;;;;;;5052249;28;20931;-77
2022/07/22 01:14:45;;;;;;;17.80;8.70;;;;;;;;;;5054283;28;20449;-77
2022/07/22 01:17:12;;;;;;;18.17;8.07;;;;;;;;;;5056365;28;20721;-77
2022/07/22 01:19:39;;;;;;;10.40;7.40;;;;;;;;;;5054930;28;20831;-76
2022/07/22 01:22:06;;;;;;;12.60;7.23;;;;;;;;;;5056024;28;20415;-75
2022/07/22 01:24:32;;;;;;;12.07;7.27;;;;;;;;;;5054397;28;20440;-76
2022/07/22 01:26:58;;;;;;;14.83;7.93;;;;;;;;;;5055933;28;20769;-78
2022/07/22 01:29:24;;;;;;;10.43;7.70;;;;;;;;;;5055663;28;20427;-77
2022/07/22 01:31:50;;;;;;;8.80;6.90;;;;;;;;;;5055819;28;20405;-77
2022/07/22 01:34:16;;;;;;;9.73;6.10;;;;;;;;;;5055321;28;20814;-77
2022/07/22 01:36:42;;;;;;;12.60;7.70;;;;;;;;;;5055761;28;20856;-78
2022/07/22 01:39:08;;;;;;;13.60;7.00;;;;;;;;;;5054422;28;20474;-76
2022/07/22 01:41:34;;;;;;;11.97;7.10;;;;;;;;;;5055823;28;20488;-78
2022/07/22 01:44:00;;;;;;;12.57;6.70;;;;;;;;;;5053932;28;21003;-76
2022/07/22 01:46:26;;;;;;;9.57;6.90;;;;;;;;;;5055573;28;20773;-75
2022/07/22 01:48:53;;;;;;;11.30;7.60;;;;;;;;;;5055353;28;20439;-74
2022/07/22 01:51:19;;;;;;;13.70;8.60;;;;;;;;;;5055303;28;20806;-75
2022/07/22 01:53:45;;;;;;;11.87;6.77;;;;;;;;;;5054142;28;20436;-76
2022/07/22 01:56:11;;;;;;;8.57;7.27;;;;;;;;;;5055391;28;20375;-76
2022/07/22 01:58:37;;;;;;;14.23;7.83;;;;;;;;;;5055174;28;20925;-76
2022/07/22 02:01:04;;;;;;;20.97;9.20;;;;;;;;;;5055342;28;20934;-75
2022/07/22 02:03:29;;;;;;;15.03;8.80;;;;;;;;;;5054982;28;20453;-78
2022/07/22 02:05:55;;;;;;;15.40;8.70;;;;;;;;;;5055006;28;20780;-76
2022/07/22 02:08:22;;;;;;;18.17;9.33;;;;;;;;;;5053884;28;20471;-76
2022/07/22 02:10:48;;;;;;;13.47;9.90;;;;;;;;;;5055478;28;20391;-75
2022/07/22 02:13:14;;;;;;;18.23;9.13;;;;;;;;;;5054861;28;20436;-77
2022/07/22 02:15:40;;;;;;;15.13;9.27;;;;;;;;;;5055126;28;20413;-75
2022/07/22 02:18:13;;;;;;;12.83;9.00;;;;;;;;;;5055145;28;20405;-75
2022/07/22 02:20:39;;;;;;;15.87;8.53;;;;;;;;;;5054779;28;20412;-75
2022/07/22 02:23:05;;;;;;;12.73;9.50;;;;;;;;;;5054569;28;20425;-75
2022/07/22 02:25:31;;;;;;;16.83;8.40;;;;;;;;;;5054680;28;20408;-74
2022/07/22 02:27:57;;;;;;;14.37;8.63;;;;;;;;;;5054814;28;20874;-76
2022/07/22 02:30:23;;;;;;;10.27;8.27;;;;;;;;;;5054495;28;20383;-74
2022/07/22 02:32:49;;;;;;;17.60;9.13;;;;;;;;;;5053049;28;20433;-76
2022/07/22 02:35:15;;;;;;;13.93;8.87;;;;;;;;;;5054569;28;20777;-77
2022/07/22 02:37:41;;;;;;;12.90;9.00;;;;;;;;;;5054595;28;20431;-76
2022/07/22 02:40:08;;;;;;;12.73;9.50;;;;;;;;;;5054531;28;20425;-75
2022/07/22 02:42:34;;;;;;;12.97;8.17;;;;;;;;;;5054217;28;20430;-76
2022/07/22 02:45:00;;;;;;;13.43;9.47;;;;;;;;;;5054455;28;20448;-76
2022/07/22 02:47:26;;;;;;;12.80;8.90;;;;;;;;;;5054375;28;20388;-75
2022/07/22 02:49:52;;;;;;;13.20;9.40;;;;;;;;;;5054229;28;20434;-78
2022/07/22 02:52:18;;;;;;;15.57;9.37;;;;;;;;;;5053943;28;20508;-74
2022/07/22 02:54:44;;;;;;;18.17;10.73;;;;;;;;;;5054023;28;20422;-77
2022/07/22 02:57:10;;;;;;;17.00;10.17;;;;;;;;;;5054502;28;20409;-74
2022/07/22 02:59:36;;;;;;;11.87;8.90;;;;;;;;;;5054906;28;20394;-77
2022/07/22 03:02:03;;;;;;;17.10;9.97;;;;;;;;;;5058595;28;20433;-78
2022/07/22 03:04:29;;;;;;;16.10;9.07;;;;;;;;;;5053889;28;20419;-75
2022/07/22 03:06:55;;;;;;;14.70;9.77;;;;;;;;;;5053929;28;20384;-78
2022/07/22 03:09:21;;;;;;;22.63;9.00;;;;;;;;;;5054108;28;20988;-78
2022/07/22 03:11:47;;;;;;;13.43;9.93;;;;;;;;;;5054099;28;20409;-75
2022/07/22 03:14:13;;;;;;;15.37;9.67;;;;;;;;;;5053433;28;20429;-75
2022/07/22 03:16:39;;;;;;;13.60;9.50;;;;;;;;;;5053859;28;20431;-74
2022/07/22 03:19:06;;;;;;;15.30;9.63;;;;;;;;;;5052468;28;20426;-76
2022/07/22 03:21:32;;;;;;;19.00;10.37;;;;;;;;;;5053873;28;20398;-75
2022/07/22 03:23:58;;;;;;;14.47;9.67;;;;;;;;;;5053482;28;20799;-76
2022/07/22 03:26:24;;;;;;;13.37;10.10;;;;;;;;;;5053893;28;20420;-75
2022/07/22 03:28:50;;;;;;;12.33;8.27;;;;;;;;;;5053582;28;20460;-76
2022/07/22 03:31:16;;;;;;;18.23;9.83;;;;;;;;;;5053424;28;20387;-75
2022/07/22 03:33:42;;;;;;;18.73;9.73;;;;;;;;;;5053192;28;20414;-76
2022/07/22 03:36:08;;;;;;;13.67;9.30;;;;;;;;;;5053572;28;20395;-75
2022/07/22 03:38:34;;;;;;;13.27;9.73;;;;;;;;;;5052890;28;20488;-75
2022/07/22 03:41:00;;;;;;;18.70;9.80;;;;;;;;;;5053328;28;20423;-78
2022/07/22 03:43:26;;;;;;;18.37;9.33;;;;;;;;;;5053064;28;20998;-74
2022/07/22 03:45:52;;;;;;;15.30;8.43;;;;;;;;;;5053607;28;20384;-75
2022/07/22 03:48:18;;;;;;;16.83;9.80;;;;;;;;;;5053819;28;20446;-78
2022/07/22 03:50:44;;;;;;;16.93;9.13;;;;;;;;;;5053669;28;20390;-76
2022/07/22 03:53:10;;;;;;;14.67;8.90;;;;;;;;;;5052811;28;20419;-77
2022/07/22 03:55:37;;;;;;;16.70;8.97;;;;;;;;;;5052180;28;20437;-75
2022/07/22 03:58:03;;;;;;;13.90;8.63;;;;;;;;;;5053268;28;20416;-75
2022/07/22 04:00:29;;;;;;;19.27;10.27;;;;;;;;;;5053257;28;20380;-74
2022/07/22 04:02:55;;;;;;;10.90;9.30;;;;;;;;;;5053253;28;20436;-75
2022/07/22 04:05:21;;;;;;;14.43;8.47;;;;;;;;;;5053181;28;20828;-78
2022/07/22 04:07:47;;;;;;;15.30;8.30;;;;;;;;;;5053182;28;20503;-74
2022/07/22 04:10:13;;;;;;;16.53;9.07;;;;;;;;;;5053033;28;20472;-75
2022/07/22 04:12:39;;;;;;;20.67;11.00;;;;;;;;;;5052979;28;20899;-76
2022/07/22 04:15:06;;;;;;;18.57;9.33;;;;;;;;;;5053161;28;20539;-76
2022/07/22 04:17:32;;;;;;;15.23;8.60;;;;;;;;;;5053051;28;20380;-78
2022/07/22 04:20:00;;;;;;;14.00;10.27;;;;;;;;;;5053299;28;20496;-76
2022/07/22 04:22:26;;;;;;;19.30;10.43;;;;;;;;;;5052973;28;20416;-76
2022/07/22 04:24:52;;;;;;;10.53;9.00;;;;;;;;;;5053186;28;20463;-77
2022/07/22 04:27:18;;;;;;;12.90;8.13;;;;;;;;;;5053210;28;20423;-76
2022/07/22 04:29:44;;;;;;;13.23;9.90;;;;;;;;;;5052894;28;20464;-76
2022/07/22 04:32:10;;;;;;;18.10;9.03;;;;;;;;;;5053138;28;20794;-77
2022/07/22 04:34:36;;;;;;;13.13;9.03;;;;;;;;;;5052844;28;20411;-76
2022/07/22 04:37:02;;;;;;;15.63;10.40;;;;;;;;;;5054023;28;20404;-76
2022/07/22 04:39:28;;;;;;;13.63;9.43;;;;;;;;;;5053976;28;20892;-77
2022/07/22 04:41:54;;;;;;;15.40;8.97;;;;;;;;;;5052614;28;20439;-76
2022/07/22 04:44:20;;;;;;;14.63;9.43;;;;;;;;;;5052897;28;20936;-74
2022/07/22 04:46:46;;;;;;;14.73;9.63;;;;;;;;;;5053411;28;20413;-75
2022/07/22 04:49:12;;;;;;;12.13;9.40;;;;;;;;;;5055524;28;20467;-76
2022/07/22 04:51:38;;;;;;;9.23;8.33;;;;;;;;;;5057000;28;20903;-74
2022/07/22 04:54:04;;;;;;;13.10;8.80;;;;;;;;;;5056242;28;20493;-78
2022/07/22 04:56:30;;;;;;;13.20;8.30;;;;;;;;;;5056838;28;20833;-75
2022/07/22 04:58:56;;;;;;;17.00;8.67;;;;;;;;;;5057096;28;20513;-74
2022/07/22 05:01:22;;;;;;;16.37;10.93;;;;;;;;;;5057024;28;20476;-75
2022/07/22 05:03:48;;;;;;;13.93;10.47;;;;;;;;;;5054583;28;20413;-75
2022/07/22 05:06:14;;;;;;;12.63;9.67;;;;;;;;;;5056546;28;20905;-76
2022/07/22 05:08:40;;;;;;;14.40;10.20;;;;;;;;;;5056448;28;20442;-74
2022/07/22 05:11:07;;;;;;;13.87;10.27;;;;;;;;;;5056421;28;20731;-75
2022/07/22 05:13:33;;;;;;;10.77;9.20;;;;;;;;;;5056018;28;20891;-77
2022/07/22 05:16:02;;;;;;;17.57;10.07;;;;;;;;;;5056074;28;20845;-75
2022/07/22 05:18:28;;;;;;;15.67;9.80;;;;;;;;;;5056205;28;20383;-74
2022/07/22 05:20:54;;;;;;;15.17;11.37;;;;;;;;;;5056659;28;20398;-76
2022/07/22 05:23:20;;;;;;;14.30;11.17;;;;;;;;;;5055905;28;20435;-77
2022/07/22 05:25:46;;;;;;;15.80;11.20;;;;;;;;;;5056203;28;20409;-75
2022/07/22 05:28:12;;;;;;;18.47;11.90;;;;;;;;;;5055847;28;20391;-74
2022/07/22 05:30:38;;;;;;;14.20;11.40;;;;;;;;;;5056126;28;20471;-75
2022/07/22 05:33:04;;;;;;;18.07;11.13;;;;;;;;;;5055725;28;20441;-76
2022/07/22 05:35:30;;;;;;;18.10;10.57;;;;;;;;;;5054502;28;20444;-78
2022/07/22 05:37:56;;;;;;;14.50;11.30;;;;;;;;;;5055882;28;20480;-77
2022/07/22 05:40:22;;;;;;;12.50;10.57;;;;;;;;;;5055716;28;20388;-75
2022/07/22 05:42:48;;;;;;;13.53;10.90;;;;;;;;;;5055347;28;20439;-77
2022/07/22 05:45:14;;;;;;;20.43;11.27;;;;;;;;;;5055784;28;20416;-78
2022/07/22 05:47:40;;;;;;;17.60;11.50;;;;;;;;;;5055636;28;20396;-74
2022/07/22 05:50:06;;;;;;;16.40;11.07;;;;;;;;;;5055650;28;20464;-77
2022/07/22 05:52:32;;;;;;;17.33;12.03;;;;;;;;;;5055257;28;20403;-76
2022/07/22 05:55:01;;;;;;;15.83;12.40;;;;;;;;;;5055607;28;20462;-75
2022/07/22 05:57:27;;;;;;;19.90;10.97;;;;;;;;;;5055760;28;20380;-77
2022/07/22 05:59:53;;;;;;;16.27;11.80;;;;;;;;;;5055112;28;20524;-78
2022/07/22 06:02:19;;;;;;;15.80;11.30;;;;;;;;;;5054063;28;20416;-75
2022/07/22 06:04:45;;;;;;;14.73;11.00;;;;;;;;;;5056839;28;20472;-75
2022/07/22 06:07:11;;;;;;;14.73;10.33;;;;;;;;;;5055917;28;20432;-76
2022/07/22 06:09:37;;;;;;;14.13;10.10;;;;;;;;;;5055346;28;20438;-75
2022/07/22 06:12:03;;;;;;;13.87;10.27;;;;;;;;;;5054886;28;20898;-75
2022/07/22 06:14:29;;;;;;;12.30;10.30;;;;;;;;;;5054504;28;20448;-77
2022/07/22 06:16:55;;;;;;;17.57;11.00;;;;;;;;;;5055176;28;20878;-75
2022/07/22 06:19:22;;;;;;;12.77;9.87;;;;;;;;;;5054876;28;20421;-77
2022/07/22 06:21:48;;;;;;;15.30;10.97;;;;;;;;;;5054825;28;20417;-74
2022/07/22 06:24:14;;;;;;;14.53;10.30;;;;;;;;;;5054467;28;20910;-76
2022/07/22 06:26:40;;;;;;;11.13;10.03;;;;;;;;;;5054759;28;20387;-77
2022/07/22 06:29:06;;;;;;;15.97;10.43;;;;;;;;;;5054690;28;20534;-77
2022/07/22 06:31:32;;;;;;;15.47;9.67;;;;;;;;;;5054673;28;20949;-77
2022/07/22 06:33:58;;;;;;;11.33;9.23;;;;;;;;;;5054246;28;20428;-76
2022/07/22 06:36:24;;;;;;;11.80;8.70;;;;;;;;;;5054458;28;20746;-75
2022/07/22 06:38:50;;;;;;;11.30;8.50;;;;;;;;;;5054606;28;20392;-77
2022/07/22 06:41:19;;;;;;;16.77;9.43;;;;;;;;;;5054463;28;20427;-76
2022/07/22 06:43:45;;;;;;;13.27;9.47;;;;;;;;;;5054104;28;20436;-75
2022/07/22 06:46:11;;;;;;;10.57;8.33;;;;;;;;;;5054215;28;20431;-76
2022/07/22 06:48:37;;;;;;;12.50;9.27;;;;;;;;;;5054288;28;20435;-76
2022/07/22 06:51:03;;;;;;;12.30;8.47;;;;;;;;;;5054360;28;20380;-75
2022/07/22 06:53:29;;;;;;;11.23;7.60;;;;;;;;;;5053823;28;20474;-76
2022/07/22 06:55:55;;;;;;;11.13;8.50;;;;;;;;;;5053199;28;20451;-75
2022/07/22 06:58:21;;;;;;;8.70;7.60;;;;;;;;;;5054655;28;20441;-78
2022/07/22 07:00:47;;;;;;;13.80;9.53;;;;;;;;;;5054381;28;20477;-76
2022/07/22 07:03:13;;;;;;;12.97;8.80;;;;;;;;;;5053633;28;20446;-76
2022/07/22 07:05:39;;;;;;;12.63;9.17;;;;;;;;;;5054162;28;20386;-80
2022/07/22 07:08:05;;;;;;;11.60;9.50;;;;;;;;;;5054467;28;20417;-78
2022/07/22 07:10:32;;;;;;;8.70;7.60;;;;;;;;;;5054184;28;20407;-78
2022/07/22 07:12:59;;;;;;;14.90;10.50;;;;;;;;;;5052812;28;20854;-79
2022/07/22 07:15:25;;;;;;;13.23;11.10;;;;;;;;;;5053987;28;20391;-78
2022/07/22 07:17:52;;;;;;;16.73;11.90;;;;;;;;;;5053999;28;20388;-78
2022/07/22 07:20:18;;;;;;;15.50;11.50;;;;;;;;;;5053817;28;20804;-77
2022/07/22 07:22:44;;;;;;;14.73;11.67;;;;;;;;;;5053395;28;20482;-79
2022/07/22 07:25:10;;;;;;;11.57;10.37;;;;;;;;;;5057611;28;20392;-77
2022/07/22 07:27:36;;;;;;;9.53;7.27;;;;;;;;;;5055406;28;20412;-76
2022/07/22 07:30:03;;;;;;;10.70;7.57;;;;;;;;;;5055431;28;20464;-76
2022/07/22 07:32:29;;;;;;;13.97;6.00;;;;;;;;;;5056728;28;20383;-76
2022/07/22 07:34:55;;;;;;;6.73;5.70;;;;;;;;;;5056497;28;20440;-78
2022/07/22 07:37:21;;;;;;;6.30;4.70;;;;;;;;;;5054970;28;20879;-77
2022/07/22 07:39:47;;;;;;;7.50;4.80;;;;;;;;;;5055251;28;20423;-76
2022/07/22 07:42:14;;;;;;;7.00;4.43;;;;;;;;;;5054869;28;20478;-77
2022/07/22 07:44:40;;;;;;;5.87;3.10;;;;;;;;;;5053932;28;20403;-79
2022/07/22 07:47:06;;;;;;;6.87;4.07;;;;;;;;;;5053508;28;20759;-79
2022/07/22 07:49:32;;;;;;;5.37;3.50;;;;;;;;;;5053904;28;20874;-78
2022/07/22 07:51:58;;;;;;;5.50;4.13;;;;;;;;;;5057932;28;20470;-77
2022/07/22 07:54:24;;;;;;;7.20;3.60;;;;;;;;;;5053074;28;20437;-77
2022/07/22 07:56:50;;;;;;;5.80;3.53;;;;;;;;;;5053446;28;20425;-75
2022/07/22 07:59:16;;;;;;;5.97;3.90;;;;;;;;;;5053207;28;20528;-76
2022/07/22 08:01:42;;;;;;;6.07;3.70;;;;;;;;;;5053361;28;20430;-77
2022/07/22 08:04:08;;;;;;;6.30;3.50;;;;;;;;;;5053247;28;20774;-76
2022/07/22 08:06:35;;;;;;;6.33;3.93;;;;;;;;;;5053601;28;20420;-79
2022/07/22 08:09:01;;;;;;;8.27;3.83;;;;;;;;;;5053918;28;20472;-77
2022/07/22 08:11:26;;;;;;;7.47;3.53;;;;;;;;;;5054448;28;20410;-75
2022/07/22 08:13:54;;;;;;;7.83;3.40;;;;;;;;;;5054628;28;20539;-77
2022/07/22 08:16:20;;;;;;;6.03;3.70;;;;;;;;;;5054056;28;20897;-75
2022/07/22 08:18:46;;;;;;;11.13;3.80;;;;;;;;;;5053415;28;20394;-77
2022/07/22 08:21:12;;;;;;;7.83;4.63;;;;;;;;;;5053055;28;20444;-77
2022/07/22 08:23:38;;;;;;;8.57;4.47;;;;;;;;;;5054406;28;20537;-76
2022/07/22 08:26:04;;;;;;;7.40;4.70;;;;;;;;;;5057222;28;20532;-76
2022/07/22 08:28:30;;;;;;;10.23;4.93;;;;;;;;;;5057016;28;20539;-77
2022/07/22 08:30:56;;;;;;;6.30;4.57;;;;;;;;;;5057027;28;20783;-75
2022/07/22 08:33:22;;;;;;;6.73;4.70;;;;;;;;;;5056406;28;20476;-77
2022/07/22 08:35:48;;;;;;;7.57;4.80;;;;;;;;;;5056899;28;20384;-76
2022/07/22 08:38:14;;;;;;;8.20;4.50;;;;;;;;;;5056799;28;20389;-77
2022/07/22 08:40:40;;;;;;;6.83;4.60;;;;;;;;;;5056735;28;20384;-76
2022/07/22 08:43:06;;;;;;;6.30;4.73;;;;;;;;;;5056200;28;20467;-76
2022/07/22 08:45:32;;;;;;;5.87;3.80;;;;;;;;;;5056511;28;20493;-75
2022/07/22 08:48:02;;;;;;;7.60;5.00;;;;;;;;;;5056798;28;20823;-76
2022/07/22 08:50:31;;;;;;;8.03;5.17;;;;;;;;;;5056728;28;20427;-75
2022/07/22 08:52:57;;;;;;;6.90;5.23;;;;;;;;;;5056514;28;20863;-76
2022/07/22 08:55:25;;;;;;;8.43;5.17;;;;;;;;;;5057204;28;20420;-75
2022/07/22 08:57:51;;;;;;;7.63;5.57;;;;;;;;;;5057144;28;20914;-76
2022/07/22 09:00:21;;;;;;;9.93;5.60;;;;;;;;;;5057047;28;20397;-76
2022/07/22 09:02:48;;;;;;;8.67;6.13;;;;;;;;;;5056545;28;20434;-76
2022/07/22 09:05:15;;;;;;;9.63;5.77;;;;;;;;;;5057186;28;20389;-75
2022/07/22 09:07:42;;;;;;;8.27;6.10;;;;;;;;;;5056534;28;20388;-75
2022/07/22 09:10:09;;;;;;;10.43;7.20;;;;;;;;;;5056842;28;20505;-75
2022/07/22 09:12:50;;;;;;;9.87;6.67;;;;;;;;;;5056486;28;20435;-75
2022/07/22 09:15:16;;;;;;;9.83;6.67;;;;;;;;;;5057460;28;20994;-75
2022/07/22 09:17:42;;;;;;;13.70;7.20;;;;;;;;;;5056213;28;20986;-76
2022/07/22 09:20:18;;;;;;;17.50;9.17;;;;;;;;;;5057154;28;20416;-74
2022/07/22 09:22:46;;;;;;;14.13;9.73;;;;;;;;;;5056339;28;20427;-75
2022/07/22 09:25:18;;;;;;;12.80;8.30;;;;;;;;;;5057073;28;20406;-76
2022/07/22 09:27:45;;;;;;;13.57;11.87;;;;;;;;;;5056801;28;20390;-75
2022/07/22 09:30:13;;;;;;;16.20;13.10;;;;;;;;;;5056329;28;20445;-76
2022/07/22 09:32:43;;;;;;;16.30;13.40;;;;;;;;;;5056447;28;20387;-76
2022/07/22 09:35:10;;;;;;;16.03;12.00;;;;;;;;;;5055688;28;20411;-75
2022/07/22 09:37:36;;;;;;;18.33;12.80;;;;;;;;;;5056483;28;20399;-75
2022/07/22 09:40:19;;;;;;;19.37;14.07;;;;;;;;;;5055985;28;20396;-74
2022/07/22 09:43:12;;;;;;;19.23;15.37;;;;;;;;;;5055925;28;20511;-74
2022/07/22 09:45:58;;;;;;;16.80;15.10;;;;;;;;;;5051487;28;20404;-75
2022/07/22 09:48:25;;;;;;;19.40;16.83;;;;;;;;;;5055950;28;20400;-74
2022/07/22 09:50:52;;;;;;;20.00;17.80;;;;;;;;;;5038769;28;20769;-74
2022/07/22 09:53:19;;;;;;;18.53;16.47;;;;;;;;;;5055287;28;20447;-74
2022/07/22 09:55:46;;;;;;;22.37;17.20;;;;;;;;;;5057442;28;20405;-76
2022/07/22 09:58:12;;;;;;;21.63;19.37;;;;;;;;;;5057763;28;20404;-74
2022/07/22 10:00:38;;;;;;;21.70;16.93;;;;;;;;;;5057125;28;20405;-75
2022/07/22 10:03:06;;;;;;;20.80;17.30;;;;;;;;;;5056085;28;20760;-77
2022/07/22 10:05:33;;;;;;;20.70;18.40;;;;;;;;;;5055687;28;20442;-75
2022/07/22 10:08:03;;;;;;;19.50;16.70;;;;;;;;;;5055735;28;20416;-77
2022/07/22 10:10:31;;;;;;;17.63;15.80;;;;;;;;;;5056027;28;20435;-75
2022/07/22 10:12:58;;;;;;;20.93;18.57;;;;;;;;;;5053818;28;21193;-75
2022/07/22 10:15:25;;;;;;;18.10;14.50;;;;;;;;;;5054565;28;20417;-76
2022/07/22 10:17:55;;;;;;;21.57;18.03;;;;;;;;;;5055234;28;20492;-76
2022/07/22 10:20:22;;;;;;;17.57;15.53;;;;;;;;;;5055292;28;20419;-75
2022/07/22 10:22:53;;;;;;;15.83;14.13;;;;;;;;;;5054971;28;20437;-75
2022/07/22 10:25:19;;;;;;;16.30;14.60;;;;;;;;;;5054259;28;20423;-74
2022/07/22 10:27:45;;;;;;;16.50;14.73;;;;;;;;;;5054999;28;20477;-75
2022/07/22 10:30:13;;;;;;;14.83;12.07;;;;;;;;;;5053357;28;20553;-75
2022/07/22 10:32:39;;;;;;;18.27;11.57;;;;;;;;;;5054357;28;20419;-74
2022/07/22 10:35:06;;;;;;;18.70;10.90;;;;;;;;;;5047542;28;20421;-76
2022/07/22 10:37:37;;;;;;;15.57;11.60;;;;;;;;;;5050226;28;20415;-75
2022/07/22 10:40:12;;;;;;;12.60;10.17;;;;;;;;;;5054674;28;20835;-75
2022/07/22 10:43:00;;;;;;;15.00;10.33;;;;;;;;;;5053995;28;20407;-74
2022/07/22 10:45:26;;;;;;;12.13;8.73;;;;;;;;;;5057640;28;20374;-76
2022/07/22 10:47:56;;;;;;;17.40;11.40;;;;;;;;;;5055578;28;20416;-76
2022/07/22 10:50:37;;;;;;;19.27;10.00;;;;;;;;;;5052530;28;20448;-77
2022/07/22 10:53:08;;;;;;;12.20;9.73;;;;;;;;;;5044965;28;20503;-75
2022/07/22 10:55:35;;;;;;;13.07;10.07;;;;;;;;;;5046981;28;20418;-77
2022/07/22 10:58:01;;;;;;;12.20;9.63;;;;;;;;;;5052287;28;20851;-74
2022/07/22 11:00:27;;;;;;;13.00;10.17;;;;;;;;;;5053991;28;20441;-76
2022/07/22 11:02:53;;;;;;;14.93;10.70;;;;;;;;;;5053810;28;20433;-76
2022/07/22 11:05:27;;;;;;;15.33;9.73;;;;;;;;;;5054353;28;20847;-75
2022/07/22 11:07:53;;;;;;;12.10;10.47;;;;;;;;;;5053449;28;21054;-77
2022/07/22 11:10:20;;;;;;;12.07;10.60;;;;;;;;;;5035732;28;20655;-76
2022/07/22 11:12:48;;;;;;;13.13;10.23;;;;;;;;;;5033490;28;20991;-75
2022/07/22 11:15:14;;;;;;;11.60;8.93;;;;;;;;;;5034189;28;20420;-75
2022/07/22 11:17:40;;;;;;;24.43;9.83;;;;;;;;;;5033874;28;20392;-76
2022/07/22 11:20:08;;;;;;;11.60;10.20;;;;;;;;;;5033984;28;20417;-75
2022/07/22 11:22:34;;;;;;;10.53;9.37;;;;;;;;;;5033311;28;20468;-75
2022/07/22 11:25:02;;;;;;;12.47;10.27;;;;;;;;;;5033958;28;20418;-75
2022/07/22 11:27:28;;;;;;;14.17;11.17;;;;;;;;;;5033843;28;20409;-76
2022/07/22 11:29:56;;;;;;;12.53;9.83;;;;;;;;;;5033530;28;20453;-75
2022/07/22 11:32:23;;;;;;;13.57;11.30;;;;;;;;;;5032136;28;20417;-76
2022/07/22 11:34:49;;;;;;;14.53;11.03;;;;;;;;;;5033579;28;20441;-75
2022/07/22 11:37:25;;;;;;;15.60;10.63;;;;;;;;;;5033771;28;20414;-74
2022/07/22 11:39:52;;;;;;;10.80;9.60;;;;;;;;;;5053657;28;20436;-75
2022/07/22 11:42:18;;;;;;;12.47;11.17;;;;;;;;;;5053013;28;20404;-76
2022/07/22 11:44:44;;;;;;;14.60;11.23;;;;;;;;;;5053092;28;20523;-76
2022/07/22 11:47:11;;;;;;;12.90;11.60;;;;;;;;;;5053291;28;20458;-76
2022/07/22 11:49:38;;;;;;;14.50;11.17;;;;;;;;;;5053344;28;20459;-75
2022/07/22 11:52:11;;;;;;;14.13;12.47;;;;;;;;;;5053086;28;20810;-78
2022/07/22 11:54:37;;;;;;;12.43;11.13;;;;;;;;;;5053161;28;20425;-75
2022/07/22 11:57:04;;;;;;;13.50;12.07;;;;;;;;;;5055475;28;20463;-74
2022/07/22 11:59:30;;;;;;;14.20;11.87;;;;;;;;;;5053006;28;20416;-75
2022/07/22 12:01:56;;;;;;;12.23;11.13;;;;;;;;;;5053311;28;20409;-76
2022/07/22 12:04:24;;;;;;;15.93;11.70;;;;;;;;;;5053193;28;20467;-76
2022/07/22 12:06:50;;;;;;;11.87;10.60;;;;;;;;;;5053051;28;20416;-74
2022/07/22 12:09:17;;;;;;;11.50;10.23;;;;;;;;;;5053338;28;20499;-74
2022/07/22 12:11:45;;;;;;;13.70;11.33;;;;;;;;;;5053292;28;20408;-75
2022/07/22 12:14:21;;;;;;;13.53;11.63;;;;;;;;;;5052417;28;20436;-76
2022/07/22 12:17:07;;;;;;;13.87;11.73;;;;;;;;;;5052991;28;20423;-76
2022/07/22 12:19:34;;;;;;;15.77;12.57;;;;;;;;;;5053045;28;20779;-75
2022/07/22 12:22:04;;;;;;;12.40;11.10;;;;;;;;;;5053083;28;20413;-75
2022/07/22 12:24:35;;;;;;;12.57;11.30;;;;;;;;;;5052644;28;20947;-77
2022/07/22 12:27:03;;;;;;;13.10;12.00;;;;;;;;;;5052928;28;20886;-76
2022/07/22 12:29:30;;;;;;;14.80;10.67;;;;;;;;;;5044081;28;20461;-76
2022/07/22 12:31:58;;;;;;;13.60;12.20;;;;;;;;;;5039085;28;20453;-76
2022/07/22 12:34:31;;;;;;;12.37;11.27;;;;;;;;;;5034992;28;21032;-74
2022/07/22 12:36:57;;;;;;;16.10;12.87;;;;;;;;;;5033413;28;20416;-78
2022/07/22 12:39:23;;;;;;;13.23;11.93;;;;;;;;;;5033273;28;20422;-76
2022/07/22 12:41:51;;;;;;;13.30;11.40;;;;;;;;;;5033956;28;20935;-76
2022/07/22 12:44:21;;;;;;;12.43;11.23;;;;;;;;;;5031923;28;20961;-77
2022/07/22 12:46:48;;;;;;;12.90;11.70;;;;;;;;;;5032839;28;20475;-75
2022/07/22 12:49:15;;;;;;;13.80;12.10;;;;;;;;;;5032581;28;20460;-77
2022/07/22 12:51:41;;;;;;;14.03;12.30;;;;;;;;;;5032888;28;20422;-75
2022/07/22 12:54:08;;;;;;;14.97;13.43;;;;;;;;;;5032716;28;20898;-76
2022/07/22 12:56:34;;;;;;;13.00;11.63;;;;;;;;;;5033028;28;20418;-75
2022/07/22 12:59:00;;;;;;;13.73;12.10;;;;;;;;;;5032674;28;20418;-76
2022/07/22 13:01:26;;;;;;;13.30;12.00;;;;;;;;;;5032549;28;20500;-76
2022/07/22 13:03:52;;;;;;;13.33;12.00;;;;;;;;;;5032457;28;20437;-76
2022/07/22 13:06:19;;;;;;;13.53;12.23;;;;;;;;;;5033006;28;20770;-76
2022/07/22 13:08:44;;;;;;;14.53;13.13;;;;;;;;;;5032879;28;20535;-76
2022/07/22 13:11:11;;;;;;;14.80;13.07;;;;;;;;;;5036286;28;20501;-76
2022/07/22 13:13:37;;;;;;;13.93;12.50;;;;;;;;;;5035802;28;20433;-76
2022/07/22 13:16:03;;;;;;;14.13;11.70;;;;;;;;;;5036311;28;20422;-76
2022/07/22 13:18:29;;;;;;;12.97;11.67;;;;;;;;;;5035977;28;20409;-76
2022/07/22 13:20:56;;;;;;;14.03;12.63;;;;;;;;;;5036293;28;20413;-77
2022/07/22 13:23:22;;;;;;;15.03;13.53;;;;;;;;;;5035620;28;20430;-76
2022/07/22 13:25:48;;;;;;;16.07;14.40;;;;;;;;;;5036144;28;20508;-75
2022/07/22 13:28:14;;;;;;;16.50;13.37;;;;;;;;;;5039284;28;20433;-75
2022/07/22 13:30:40;;;;;;;16.90;13.43;;;;;;;;;;5054462;28;20463;-75
2022/07/22 13:33:07;;;;;;;14.90;12.47;;;;;;;;;;5055447;28;20559;-75
2022/07/22 13:35:33;;;;;;;14.37;12.93;;;;;;;;;;5055795;28;20786;-77
2022/07/22 13:37:59;;;;;;;17.60;13.13;;;;;;;;;;5055697;28;20420;-76
2022/07/22 13:40:26;;;;;;;14.10;12.60;;;;;;;;;;5055720;28;20440;-76
2022/07/22 13:42:52;;;;;;;13.87;12.30;;;;;;;;;;5055081;28;20479;-77
2022/07/22 13:45:19;;;;;;;14.13;12.63;;;;;;;;;;5055638;28;20424;-77
2022/07/22 13:47:45;;;;;;;14.43;12.03;;;;;;;;;;5055331;28;20429;-77
2022/07/22 13:50:12;;;;;;;12.97;11.63;;;;;;;;;;5055494;28;20468;-76
2022/07/22 13:52:38;;;;;;;16.60;13.60;;;;;;;;;;5055108;28;20466;-76
2022/07/22 13:55:05;;;;;;;14.60;13.07;;;;;;;;;;5055243;28;20409;-76
2022/07/22 13:57:31;;;;;;;14.53;12.77;;;;;;;;;;5055283;28;20431;-75
2022/07/22 13:59:57;;;;;;;14.10;12.60;;;;;;;;;;5055416;28;20443;-76
2022/07/22 14:02:24;;;;;;;17.10;13.43;;;;;;;;;;5054895;28;20903;-76
2022/07/22 14:04:49;;;;;;;20.10;13.10;;;;;;;;;;5055362;28;20432;-77
2022/07/22 14:07:15;;;;;;;14.30;12.90;;;;;;;;;;5053459;28;20420;-76
2022/07/22 14:09:42;;;;;;;17.00;13.43;;;;;;;;;;5054881;28;20464;-75
2022/07/22 14:12:08;;;;;;;15.23;12.47;;;;;;;;;;5055243;28;20417;-77
2022/07/22 14:14:34;;;;;;;14.47;12.80;;;;;;;;;;5054173;28;20944;-76
2022/07/22 14:17:00;;;;;;;15.03;13.53;;;;;;;;;;5038897;28;20420;-77
2022/07/22 14:19:26;;;;;;;15.53;13.90;;;;;;;;;;5033763;28;20418;-76
2022/07/22 14:21:52;;;;;;;12.70;11.40;;;;;;;;;;5034491;28;20426;-76
2022/07/22 14:24:18;;;;;;;13.50;12.10;;;;;;;;;;5034665;28;20862;-76